Latest Weather Observations for Jandakot

IDW60801

Issued at 5:23 am WST Wednesday 23 October 2019 (issued every 10 minutes, with the page automatically refreshed every 10 minutes)

About weather observations | Map of weather stations | Latest weather observations for WA | Other Formats
Station Details ID: 009172 Name: JANDAKOT AERO Lat: -32.10 Lon: 115.88 Height: 30.0 m
Data from the previous 72 hours. | See also: Recent months at Jandakot
Date/Time
WST
Temp
°C
App
Temp
°C
Dew
Point
°C
Rel
Hum
%
Delta-T
°C
Wind Press
QNH
hPa
Press
MSL
hPa
Rain since
9am
mm
Dir  Spd
km/h
Gust
km/h
Spd
kts
Gust
kts
23/05:00am 10.5 10.7 10.5 100 0.0 CALM 0 0 0 0 1017.2 1017.2 0.0
23/04:52am 10.1 10.2 10.1 100 0.0 CALM 0 0 0 0 1017.2 1017.2 0.0
23/04:30am 12.0 12.6 12.0 100 0.0 CALM 0 0 0 0 1017.1 1017.1 0.0
23/04:13am 12.0 12.6 12.0 100 0.0 CALM 0 0 0 0 1017.0 1017.0 0.0
23/04:00am 12.2 12.9 12.2 100 0.0 CALM 0 0 0 0 1017.0 1017.0 0.0
23/03:30am 12.5 13.2 12.2 98 0.2 CALM 0 0 0 0 1017.1 1017.1 0.0
23/03:00am 13.5 14.5 13.3 99 0.1 CALM 0 0 0 0 1017.2 1017.2 0.0
23/02:30am 13.2 14.1 12.9 98 0.2 CALM 0 0 0 0 1017.2 1017.2 0.0
23/02:00am 13.6 14.5 12.8 95 0.4 CALM 0 0 0 0 1017.4 1017.4 0.0
23/01:30am 14.6 14.5 13.8 95 0.4 WSW 7 9 4 5 1017.5 1017.5 0.0
23/01:00am 14.1 13.5 13.5 96 0.3 WSW 9 11 5 6 1017.6 1017.6 0.0
23/12:30am 15.2 15.3 13.9 92 0.7 SW 6 7 3 4 1017.6 1017.6 0.0
23/12:00am 16.1 16.4 15.0 93 0.6 SW 7 9 4 5 1018.0 1018.0 0.0
 
Date/Time
WST
Temp
°C
App
Temp
°C
Dew
Point
°C
Rel
Hum
%
Delta-T
°C
Wind Press
QNH
hPa
Press
MSL
hPa
Rain since
9am
mm
Dir  Spd
km/h
Gust
km/h
Spd
kts
Gust
kts
22/11:30pm 16.2 16.1 14.9 92 0.7 SW 9 11 5 6 1018.0 1018.0 0.0
22/11:00pm 16.6 16.0 14.6 88 1.1 WSW 11 15 6 8 1018.3 1018.3 0.0
22/10:30pm 17.6 16.7 14.9 84 1.6 WSW 13 17 7 9 1018.5 1018.5 0.0
22/10:00pm 18.5 17.3 15.0 80 2.0 SW 15 19 8 10 1018.6 1018.6 0.0
22/09:30pm 18.4 18.5 15.5 83 1.7 SW 9 13 5 7 1018.8 1018.8 0.0
22/09:00pm 17.8 18.2 15.4 86 1.4 SW 7 9 4 5 1018.6 1018.6 0.0
22/08:30pm 17.9 17.2 15.5 86 1.4 WSW 13 17 7 9 1018.8 1018.8 0.0
22/08:00pm 18.3 17.9 15.2 82 1.8 SW 11 15 6 8 1018.6 1018.6 0.0
22/07:30pm 19.0 18.0 15.5 80 2.1 SW 15 20 8 11 1018.4 1018.4 0.0
22/07:00pm 19.0 18.1 15.9 82 1.8 WSW 15 17 8 9 1018.0 1018.0 0.0
22/06:30pm 19.5 18.4 15.4 77 2.4 WSW 15 20 8 11 1017.5 1017.5 0.0
22/06:00pm 19.9 17.8 15.1 74 2.8 SW 20 24 11 13 1017.3 1017.3 0.0
22/05:30pm 19.8 16.6 15.2 75 2.7 WSW 26 33 14 18 1017.4 1017.4 0.0
22/05:00pm 21.4 18.8 15.9 71 3.3 WSW 24 30 13 16 1017.1 1017.1 0.0
22/04:30pm 22.0 19.2 15.4 66 3.9 SW 24 32 13 17 1017.1 1017.1 0.0
22/04:00pm 22.7 19.1 15.3 63 4.4 SW 28 35 15 19 1016.9 1016.9 0.0
22/03:30pm 23.0 19.4 14.3 58 5.1 WSW 26 33 14 18 1016.6 1016.6 0.0
22/03:00pm 23.2 18.9 12.2 50 6.2 WSW 26 33 14 18 1016.5 1016.5 0.0
22/02:30pm 24.4 20.2 11.0 43 7.5 W 24 33 13 18 1016.6 1016.6 0.0
22/02:00pm 24.1 21.7 12.7 49 6.6 WSW 17 30 9 16 1016.8 1016.8 0.0
22/01:30pm 24.1 20.7 13.6 52 6.1 WSW 24 32 13 17 1017.5 1017.5 0.0
22/01:00pm 24.2 21.2 13.7 52 6.1 WSW 22 32 12 17 1017.6 1017.6 0.0
22/12:30pm 24.4 22.0 14.5 54 5.9 W 20 28 11 15 1017.6 1017.6 0.0
22/12:00pm 24.2 22.0 14.9 56 5.5 WSW 20 28 11 15 1017.8 1017.8 0.0
22/11:30am 24.0 22.0 15.0 57 5.4 WSW 19 26 10 14 1018.0 1018.0 0.0
22/11:00am 23.6 21.9 13.5 53 5.9 SW 15 22 8 12 1018.4 1018.4 0.0
22/10:30am 23.3 23.0 12.6 51 6.1 WNW 6 9 3 5 1018.8 1018.8 0.0
22/10:00am 22.2 22.2 12.5 54 5.5 SSE 4 7 2 4 1019.3 1019.3 0.0
22/09:30am 20.9 20.7 13.1 61 4.5 SSE 6 11 3 6 1019.4 1019.4 0.0
22/09:00am 20.1 20.0 13.3 65 3.9 SSW 6 11 3 6 1019.6 1019.6 0.0
22/08:30am 19.1 18.4 13.1 68 3.4 ESE 9 13 5 7 1019.6 1019.6 0.0
22/08:00am 18.0 17.8 13.7 76 2.4 SSE 7 11 4 6 1019.7 1019.7 0.0
22/07:30am 16.8 16.4 14.1 84 1.5 SSE 9 13 5 7 1020.0 1020.0 0.0
22/07:00am 15.1 14.8 14.3 95 0.5 S 9 13 5 7 1020.0 1020.0 0.0
22/06:30am 12.6 13.0 12.6 100 0.0 S 2 9 1 5 1020.0 1020.0 0.0
22/06:16am 11.5 12.0 11.5 100 0.0 CALM 0 0 0 0 1020.0 1020.0 0.0
22/06:00am 10.6 10.8 10.6 100 0.0 CALM 0 0 0 0 1020.0 1020.0 0.0
22/05:30am 9.5 9.4 9.5 100 0.0 CALM 0 0 0 0 1019.8 1019.8 0.0
22/05:16am 10.1 9.0 10.1 100 0.0 S 6 9 3 5 1019.7 1019.7 0.0
22/05:00am 11.4 10.5 11.4 100 0.0 SSW 7 11 4 6 1019.8 1019.8 0.0
22/04:55am 10.9 10.1 10.9 100 0.0 SSW 6 9 3 5 1019.7 1019.7 0.0
22/04:34am 10.9 10.1 10.9 100 0.0 SSE 6 7 3 4 1019.7 1019.7 0.0
22/04:30am 11.3 10.6 11.3 100 0.0 S 6 9 3 5 1019.7 1019.7 0.0
22/04:00am 11.9 10.0 11.9 100 0.0 SSW 13 13 7 7 1019.7 1019.7 0.0
22/03:48am 11.5 9.9 11.5 100 0.0 S 11 13 6 7 1019.6 1019.6 0.0
22/03:30am 11.2 10.4 11.2 100 0.0 S 6 6 3 3 1019.6 1019.6 0.0
22/03:24am 11.2 10.4 11.2 100 0.0 S 6 7 3 4 1019.6 1019.6 0.0
22/03:00am 11.8 11.0 11.8 100 0.0 S 7 9 4 5 1019.7 1019.7 0.0
22/02:30am 12.2 10.8 12.2 100 0.0 SSW 11 11 6 6 1019.8 1019.8 0.0
22/02:00am 11.9 10.8 11.9 100 0.0 S 9 9 5 5 1019.7 1019.7 0.0
22/01:30am 12.5 11.9 12.2 98 0.2 S 7 9 4 5 1019.8 1019.8 0.0
22/01:00am 12.6 11.6 12.3 98 0.2 S 9 13 5 7 1020.0 1020.0 0.0
22/12:30am 12.7 11.7 12.2 97 0.3 S 9 9 5 5 1020.2 1020.2 0.0
22/12:00am 12.9 11.9 12.4 97 0.3 S 9 11 5 6 1020.2 1020.2 0.0
 
Date/Time
WST
Temp
°C
App
Temp
°C
Dew
Point
°C
Rel
Hum
%
Delta-T
°C
Wind Press
QNH
hPa
Press
MSL
hPa
Rain since
9am
mm
Dir  Spd
km/h
Gust
km/h
Spd
kts
Gust
kts
21/11:30pm 13.1 12.5 12.3 95 0.4 S 7 9 4 5 1020.1 1020.1 0.0
21/11:00pm 13.7 12.5 12.8 94 0.5 S 11 13 6 7 1020.1 1020.1 0.0
21/10:30pm 14.3 13.2 13.0 92 0.7 S 11 15 6 8 1020.1 1020.1 0.0
21/10:00pm 14.9 13.9 13.3 90 0.9 SSW 11 13 6 7 1020.4 1020.4 0.0
21/09:30pm 15.7 14.7 13.4 86 1.3 SSW 11 13 6 7 1020.7 1020.7 0.0
21/09:00pm 16.0 15.0 13.5 85 1.4 SSW 11 15 6 8 1021.0 1021.0 0.0
21/08:30pm 16.4 15.4 13.5 83 1.6 SSW 11 15 6 8 1021.1 1021.1 0.0
21/08:00pm 16.9 15.6 13.6 81 1.9 SSW 13 17 7 9 1021.1 1021.1 0.0
21/07:30pm 17.4 16.0 13.5 78 2.2 SW 13 17 7 9 1020.9 1020.9 0.0
21/07:00pm 17.9 15.4 13.4 75 2.5 SSW 19 24 10 13 1020.4 1020.4 0.0
21/06:30pm 18.4 15.7 13.5 73 2.8 SW 20 26 11 14 1020.0 1020.0 0.0
21/06:00pm 18.8 16.1 13.4 71 3.1 SW 20 28 11 15 1019.7 1019.7 0.0
21/05:30pm 19.7 16.7 13.6 68 3.5 WSW 22 28 12 15 1019.7 1019.7 0.0
21/05:00pm 20.3 16.7 13.0 63 4.1 WSW 24 30 13 16 1019.4 1019.4 0.0
21/04:30pm 20.6 16.9 12.8 61 4.4 WSW 24 30 13 16 1019.2 1019.2 0.0
21/04:00pm 21.1 16.9 12.5 58 4.9 WSW 26 32 14 17 1019.1 1019.1 0.0
21/03:30pm 21.7 18.0 12.8 57 5.1 SW 24 33 13 18 1018.9 1018.9 0.0
21/03:00pm 21.9 17.7 12.5 55 5.3 WSW 26 35 14 19 1018.8 1018.8 0.0
21/02:30pm 21.9 19.2 13.0 57 5.1 WSW 19 28 10 15 1018.8 1018.8 0.0
21/02:00pm 22.3 19.3 12.0 52 5.8 SW 19 26 10 14 1019.0 1019.0 0.0
21/01:30pm 22.5 19.6 13.0 55 5.5 SW 20 28 11 15 1019.1 1019.1 0.0
21/01:00pm 22.1 18.8 12.9 56 5.3 WSW 22 32 12 17 1019.2 1019.2 0.0
21/12:30pm 22.4 19.6 13.2 56 5.3 WSW 20 30 11 16 1019.0 1019.0 0.0
21/12:00pm 22.4 19.2 13.2 56 5.3 W 22 30 12 16 1019.3 1019.3 0.0
21/11:30am 22.6 19.9 13.4 56 5.3 W 20 30 11 16 1019.3 1019.3 0.0
21/11:00am 21.7 19.4 13.1 58 4.9 W 17 30 9 16 1019.6 1019.6 0.0
21/10:30am 21.7 20.2 13.1 58 4.9 SSW 13 20 7 11 1019.7 1019.7 0.0
21/10:00am 21.0 19.9 13.2 61 4.5 SSW 11 19 6 10 1019.9 1019.9 0.0
21/09:30am 19.9 19.7 12.9 64 4.0 SSW 6 13 3 7 1020.1 1020.1 0.0
21/09:00am 19.7 19.0 13.2 66 3.7 S 9 19 5 10 1020.1 1020.1 0.0
21/08:30am 18.8 16.9 13.0 69 3.3 S 15 22 8 12 1019.9 1019.9 0.0
21/08:00am 17.4 16.6 12.9 75 2.5 SSE 9 15 5 8 1020.0 1020.0 0.0
21/07:30am 16.2 15.6 13.5 84 1.5 E 9 13 5 7 1020.0 1020.0 0.0
21/07:00am 14.0 15.3 14.0 100 0.0 CALM 0 0 0 0 1019.8 1019.8 0.0
21/06:30am 11.8 12.4 11.8 100 0.0 CALM 0 0 0 0 1019.7 1019.7 0.0
21/06:19am 11.1 11.5 11.1 100 0.0 CALM 0 0 0 0 1019.6 1019.6 0.0
21/06:00am 9.5 9.4 9.5 100 0.0 CALM 0 0 0 0 1019.4 1019.4 0.0
21/05:41am 9.3 9.2 9.3 100 0.0 CALM 0 0 0 0 1019.1 1019.1 0.0
21/05:30am 9.6 9.5 9.6 100 0.0 CALM 0 0 0 0 1018.9 1018.9 0.0
21/05:00am 10.1 10.2 10.1 100 0.0 CALM 0 0 0 0 1018.7 1018.7 0.0
21/04:51am 10.0 10.1 10.0 100 0.0 CALM 0 0 0 0 1018.6 1018.6 0.0
21/04:30am 10.2 10.3 10.2 100 0.0 CALM 0 0 0 0 1018.5 1018.5 0.0
21/04:26am 10.2 10.3 10.2 100 0.0 CALM 0 0 0 0 1018.4 1018.4 0.0
21/04:16am 9.9 9.9 9.9 100 0.0 CALM 0 0 0 0 1018.4 1018.4 0.0
21/04:00am 10.2 10.3 10.2 100 0.0 CALM 0 0 0 0 1018.2 1018.2 0.0
21/03:56am 9.9 9.9 9.8 99 0.1 CALM 0 0 0 0 1018.1 1018.1 0.0
21/03:30am 11.3 11.7 11.3 100 0.0 CALM 0 0 0 0 1018.1 1018.1 0.0
21/03:00am 11.3 11.6 11.0 98 0.2 CALM 0 0 0 0 1018.0 1018.0 0.0
21/02:30am 12.1 12.6 11.6 97 0.3 CALM 0 0 0 0 1018.0 1018.0 0.0
21/02:00am 12.8 13.5 12.2 96 0.3 CALM 0 0 0 0 1018.1 1018.1 0.0
21/01:30am 13.0 13.8 12.7 98 0.2 CALM 0 0 0 0 1018.2 1018.2 0.0
21/01:00am 13.4 14.2 12.6 95 0.4 CALM 0 0 0 0 1018.1 1018.1 0.0
21/12:30am 14.0 14.5 12.7 92 0.7 SW 2 6 1 3 1018.2 1018.2 0.0
21/12:00am 14.6 14.3 12.8 89 1.0 SW 6 7 3 4 1018.4 1018.4 0.0
 
Date/Time
WST
Temp
°C
App
Temp
°C
Dew
Point
°C
Rel
Hum
%
Delta-T
°C
Wind Press
QNH
hPa
Press
MSL
hPa
Rain since
9am
mm
Dir  Spd
km/h
Gust
km/h
Spd
kts
Gust
kts
20/11:30pm 15.3 14.6 13.2 87 1.2 SW 9 11 5 6 1018.2 1018.2 0.0
20/11:00pm 16.4 15.4 13.5 83 1.6 SSW 11 13 6 7 1018.1 1018.1 0.0
20/10:30pm 17.3 16.4 13.8 80 2.0 SSW 11 13 6 7 1018.1 1018.1 0.0
20/10:00pm 17.9 17.5 14.0 78 2.2 SW 9 11 5 6 1018.4 1018.4 0.0
20/09:30pm 18.3 16.4 14.2 77 2.4 SW 17 20 9 11 1018.8 1018.8 0.0
20/09:00pm 18.3 18.0 14.4 78 2.2 WSW 9 13 5 7 1018.7 1018.7 0.0
20/08:30pm 18.3 16.9 14.4 78 2.3 WSW 15 17 8 9 1018.5 1018.5 0.0
20/08:00pm 18.6 17.7 14.9 79 2.2 WSW 13 19 7 10 1018.3 1018.3 0.0
20/07:30pm 18.8 18.0 15.1 79 2.2 W 13 17 7 9 1018.0 1018.0 0.0
20/07:00pm 19.1 17.7 15.6 80 2.1 W 17 22 9 12 1017.9 1017.9 0.0
20/06:30pm 19.5 18.5 15.6 78 2.3 W 15 19 8 10 1017.3 1017.3 0.0
20/06:00pm 19.7 18.3 14.5 72 3.0 W 15 20 8 11 1017.1 1017.1 0.0
20/05:30pm 19.8 18.6 15.0 74 2.8 WNW 15 20 8 11 1016.9 1016.9 0.0
20/05:00pm 20.2 18.2 15.0 72 3.1 W 19 24 10 13 1016.8 1016.8 0.0
20/04:30pm 20.1 18.6 16.3 79 2.3 NW 19 24 10 13 1016.5 1016.5 0.0
20/04:00pm 20.4 18.6 16.0 76 2.6 WNW 20 28 11 15 1016.2 1016.2 0.0
20/03:30pm 21.2 19.2 15.5 70 3.4 WNW 20 26 11 14 1016.2 1016.2 0.0
20/03:00pm 21.1 18.2 15.2 69 3.5 NW 24 32 13 17 1016.1 1016.1 0.0
20/02:30pm 21.7 18.8 15.1 66 3.9 WNW 24 32 13 17 1016.0 1016.0 0.0
20/02:00pm 22.7 19.9 15.3 63 4.4 NW 24 33 13 18 1015.8 1015.8 0.0
20/01:30pm 22.2 18.2 15.3 65 4.1 NW 30 37 16 20 1015.8 1015.8 0.0
20/01:00pm 22.2 18.3 15.5 66 4.0 NW 30 39 16 21 1015.8 1015.8 0.0
20/12:30pm 22.6 18.9 15.9 66 4.0 NW 30 39 16 21 1015.5 1015.5 0.0
20/12:00pm 21.8 17.9 15.4 67 3.8 NNW 30 37 16 20 1015.5 1015.5 0.0
20/11:30am 22.7 18.5 15.8 65 4.2 NW 32 44 17 24 1015.6 1015.6 0.0
20/11:00am 22.6 18.9 15.9 66 4.0 NW 30 39 16 21 1015.5 1015.5 0.0
20/10:30am 22.9 20.0 16.2 66 4.1 N 26 33 14 18 1015.4 1015.4 0.0
20/10:00am 21.9 19.3 16.0 69 3.6 NNW 24 33 13 18 1015.2 1015.2 0.0
20/09:30am 21.5 18.9 16.0 71 3.3 NNW 24 35 13 19 1015.5 1015.5 0.0
20/09:00am 22.6 20.7 16.6 69 3.7 NNW 22 32 12 17 1015.5 1015.5 0.0
20/08:30am 20.9 18.7 16.9 78 2.4 N 24 35 13 19 1015.4 1015.4 0.0
20/08:00am 19.8 17.5 16.6 82 1.9 N 24 32 13 17 1015.3 1015.3 0.0
20/07:45am 19.0 17.4 16.4 85 1.6 N 20 30 11 16 1015.2 1015.2 0.0
20/07:30am 18.8 16.8 16.4 86 1.4 N 22 30 12 16 1015.2 1015.2 0.0
20/07:00am 18.0 16.1 15.8 87 1.3 NNE 20 24 11 13 1014.8 1014.8 0.0
20/06:30am 17.2 15.3 15.7 91 0.9 NNE 20 24 11 13 1014.5 1014.4 0.0
20/06:00am 16.6 14.6 15.6 94 0.6 N 20 24 11 13 1014.2 1014.1 0.0
20/05:30am 16.3 14.4 15.3 94 0.6 N 19 26 10 14 1013.9 1013.8 0.0

Other formats

Comma delimited format used in spreadsheet applications
http://www.bom.gov.au/fwo/IDW60801/IDW60801.94609.axf

JavaScript Object Notation format (JSON) in row-major order
http://www.bom.gov.au/fwo/IDW60801/IDW60801.94609.json

Data quality

Most of these data are generated automatically and are frequently updated. Quality checks on data are not normally performed. It is possible for incorrect values to appear. Refer to information at About Latest Weather Observations and please check the disclaimer before using these data.